Time;durP1;ratioP1;P1;durP2;ratioP2;P2;SDS_P1;SDS_P2;PMS_P1;PMS_P2;Temp;Humidity;BMP_temperature;BMP_pressure;BME280_temperature;BME280_humidity;BME280_pressure;Samples;Min_cycle;Max_cycle;Signal;HPM_P1;HPM_P2
2022/05/27 00:01:11;;;;;;;10.30;10.00;;;13.90;99.90;;;;;;5101719;28;20236;-83
2022/05/27 00:03:39;;;;;;;10.50;10.20;;;13.90;99.90;;;;;;5101318;28;20222;-83
2022/05/27 00:06:12;;;;;;;10.30;10.00;;;13.80;99.90;;;;;;5100837;28;20222;-83
2022/05/27 00:08:40;;;;;;;10.43;10.13;;;13.80;99.90;;;;;;5101174;28;20221;-82
2022/05/27 00:11:08;;;;;;;10.60;10.30;;;13.80;99.90;;;;;;5102319;28;20229;-83
2022/05/27 00:13:38;;;;;;;10.47;10.17;;;13.70;99.90;;;;;;5102035;28;20229;-82
2022/05/27 00:16:08;;;;;;;10.47;10.17;;;13.60;99.90;;;;;;5101989;28;20228;-82
2022/05/27 00:18:39;;;;;;;10.30;10.00;;;13.60;99.90;;;;;;5101681;28;20224;-82
2022/05/27 00:21:09;;;;;;;10.27;9.97;;;13.50;99.90;;;;;;5102659;28;20233;-82
2022/05/27 00:23:39;;;;;;;10.20;9.90;;;13.50;99.90;;;;;;5102473;28;20228;-83
2022/05/27 00:26:08;;;;;;;10.30;10.00;;;13.40;99.90;;;;;;5102156;28;20249;-81
2022/05/27 00:28:35;;;;;;;10.07;9.77;;;13.40;99.90;;;;;;5101657;28;20230;-82
2022/05/27 00:31:05;;;;;;;10.10;9.80;;;13.40;99.90;;;;;;5102167;28;20295;-82
2022/05/27 00:33:34;;;;;;;10.00;9.70;;;13.40;99.90;;;;;;5101638;28;20228;-82
2022/05/27 00:36:05;;;;;;;10.20;9.90;;;13.30;99.90;;;;;;5101918;28;20260;-82
2022/05/27 00:38:36;;;;;;;10.30;10.00;;;13.40;99.90;;;;;;5101030;28;20233;-82
2022/05/27 00:41:05;;;;;;;10.27;9.97;;;13.40;99.90;;;;;;5101541;28;20256;-83
2022/05/27 00:43:33;;;;;;;10.00;9.70;;;13.40;99.90;;;;;;5101510;28;20256;-82
2022/05/27 00:46:09;;;;;;;10.23;9.93;;;13.40;99.90;;;;;;5101492;28;20276;-82
2022/05/27 00:48:40;;;;;;;10.40;10.10;;;13.40;99.90;;;;;;5101365;28;20233;-82
2022/05/27 00:51:20;;;;;;;10.40;10.10;;;13.40;99.90;;;;;;5101710;28;20297;-82
2022/05/27 00:53:59;;;;;;;10.13;9.83;;;13.40;99.90;;;;;;5101076;28;20229;-82
2022/05/27 00:56:36;;;;;;;10.40;10.10;;;13.40;99.90;;;;;;5101091;28;20229;-82
2022/05/27 00:59:12;;;;;;;10.50;10.20;;;13.50;99.90;;;;;;5100359;28;20237;-82
2022/05/27 01:01:42;;;;;;;10.30;10.00;;;13.50;99.90;;;;;;5101390;28;20232;-82
2022/05/27 01:04:12;;;;;;;10.50;10.20;;;13.40;99.90;;;;;;5101030;28;20226;-82
2022/05/27 01:06:41;;;;;;;10.33;10.03;;;13.40;99.90;;;;;;5100605;28;20295;-82
2022/05/27 01:09:12;;;;;;;10.60;10.30;;;13.40;99.90;;;;;;5100621;28;20233;-82
2022/05/27 01:12:17;;;;;;;10.57;10.27;;;13.40;99.90;;;;;;5101051;28;20234;-82
2022/05/27 01:15:04;;;;;;;10.67;10.37;;;13.40;99.90;;;;;;5099311;28;20271;-82
2022/05/27 01:17:59;;;;;;;10.40;10.10;;;13.30;99.90;;;;;;5101537;28;20217;-83
2022/05/27 01:20:42;;;;;;;10.40;10.10;;;13.30;99.90;;;;;;5101156;28;20229;-82
2022/05/27 01:24:00;;;;;;;10.43;10.13;;;13.20;99.90;;;;;;5101009;28;20226;-82
2022/05/27 01:27:12;;;;;;;10.40;10.10;;;13.20;99.90;;;;;;5098681;28;20230;-82
2022/05/27 01:30:25;;;;;;;10.37;10.07;;;13.20;99.90;;;;;;5087720;28;20244;-82
2022/05/27 01:33:17;;;;;;;10.50;10.20;;;13.20;99.90;;;;;;5104010;28;20253;-83
2022/05/27 01:35:51;;;;;;;10.33;10.03;;;13.20;99.90;;;;;;5099578;28;20233;-83
2022/05/27 01:38:29;;;;;;;10.20;9.90;;;13.10;99.90;;;;;;5099141;28;20224;-83
2022/05/27 01:41:07;;;;;;;10.50;10.20;;;13.20;99.90;;;;;;5099158;28;20233;-82
2022/05/27 01:43:47;;;;;;;10.50;10.20;;;13.10;99.90;;;;;;5099935;28;20229;-82
2022/05/27 01:46:22;;;;;;;10.13;9.83;;;13.10;99.90;;;;;;5099801;28;20237;-82
2022/05/27 01:49:03;;;;;;;10.20;9.90;;;13.10;99.90;;;;;;5099260;28;20237;-82
2022/05/27 01:51:41;;;;;;;10.50;10.20;;;13.10;99.90;;;;;;5099444;28;20252;-82
2022/05/27 01:54:18;;;;;;;10.53;10.23;;;13.10;99.90;;;;;;5103087;28;20210;-82
2022/05/27 01:56:53;;;;;;;10.40;10.10;;;13.20;99.90;;;;;;5103309;28;20320;-82
2022/05/27 01:59:25;;;;;;;10.40;10.10;;;13.10;99.90;;;;;;5104045;28;20229;-82
2022/05/27 02:02:09;;;;;;;10.40;10.10;;;13.10;99.90;;;;;;5105266;28;20267;-83
2022/05/27 02:04:42;;;;;;;10.40;10.10;;;13.10;99.90;;;;;;5102112;28;20221;-84
2022/05/27 02:07:22;;;;;;;10.03;9.73;;;13.00;99.90;;;;;;5102323;28;20226;-83
2022/05/27 02:09:59;;;;;;;10.40;10.10;;;13.00;99.90;;;;;;5101708;28;20244;-83
2022/05/27 02:12:37;;;;;;;10.10;9.80;;;13.00;99.90;;;;;;5101619;28;20228;-83
2022/05/27 02:15:10;;;;;;;10.20;9.90;;;13.00;99.90;;;;;;5101109;28;20233;-83
2022/05/27 02:17:58;;;;;;;10.20;9.90;;;13.00;99.90;;;;;;5101889;28;20259;-82
2022/05/27 02:20:30;;;;;;;10.20;9.90;;;13.00;99.90;;;;;;5100900;28;20244;-83
2022/05/27 02:23:03;;;;;;;10.23;9.93;;;13.00;99.90;;;;;;5101796;28;20241;-83
2022/05/27 02:25:35;;;;;;;9.90;9.60;;;13.00;99.90;;;;;;5102468;28;20225;-83
2022/05/27 02:28:11;;;;;;;10.10;9.80;;;12.90;99.90;;;;;;5104722;28;20230;-82
2022/05/27 02:30:50;;;;;;;10.23;9.93;;;12.90;99.90;;;;;;5103835;28;20228;-83
2022/05/27 02:36:22;;;;;;;9.93;9.63;;;12.90;99.90;;;;;;5102386;28;20229;-82
2022/05/27 02:38:51;;;;;;;9.90;9.60;;;12.80;99.90;;;;;;5102568;28;20259;-83
2022/05/27 02:41:30;;;;;;;10.00;9.70;;;12.80;99.90;;;;;;5101679;28;20229;-83
2022/05/27 02:44:17;;;;;;;9.70;9.40;;;12.80;99.90;;;;;;5102363;28;20237;-82
2022/05/27 02:46:57;;;;;;;10.00;9.70;;;12.80;99.90;;;;;;5102238;28;20229;-83
2022/05/27 02:49:43;;;;;;;9.80;9.50;;;12.80;99.90;;;;;;5102445;28;20236;-82
2022/05/27 02:52:28;;;;;;;10.70;10.40;;;12.80;99.90;;;;;;5102302;28;20237;-83
2022/05/27 02:55:14;;;;;;;10.53;10.23;;;12.70;99.90;;;;;;5101365;28;20266;-83
2022/05/27 02:57:46;;;;;;;10.70;10.40;;;12.70;99.90;;;;;;5101454;28;20300;-82
2022/05/27 03:00:21;;;;;;;10.97;10.67;;;12.70;99.90;;;;;;5101923;28;20241;-83
2022/05/27 03:02:52;;;;;;;11.03;10.73;;;12.60;99.90;;;;;;5101681;28;20230;-82
2022/05/27 03:05:30;;;;;;;11.00;10.70;;;12.60;99.90;;;;;;5101680;28;20252;-83
2022/05/27 03:08:11;;;;;;;11.10;10.80;;;12.50;99.90;;;;;;5101962;28;20213;-83
2022/05/27 03:10:56;;;;;;;11.17;10.87;;;12.50;99.90;;;;;;5100942;28;20233;-83
2022/05/27 03:13:54;;;;;;;11.10;10.80;;;12.50;99.90;;;;;;5100991;28;20229;-83
2022/05/27 03:16:32;;;;;;;11.20;10.90;;;12.40;99.90;;;;;;5093944;28;20332;-83
2022/05/27 03:19:27;;;;;;;10.87;10.57;;;12.40;99.90;;;;;;5100165;28;20230;-82
2022/05/27 03:22:16;;;;;;;10.57;10.27;;;12.40;99.90;;;;;;5102806;28;20233;-84
2022/05/27 03:25:04;;;;;;;10.80;10.50;;;12.40;99.90;;;;;;5105058;28;20252;-84
2022/05/27 03:27:48;;;;;;;10.50;10.20;;;12.40;99.90;;;;;;5104913;28;20239;-83
2022/05/27 03:30:27;;;;;;;10.70;10.40;;;12.40;99.90;;;;;;5105567;28;20233;-83
2022/05/27 03:33:05;;;;;;;10.87;10.57;;;12.40;99.90;;;;;;5105254;28;20233;-83
2022/05/27 03:35:44;;;;;;;10.73;10.43;;;12.40;99.90;;;;;;5111734;28;20237;-83
2022/05/27 03:38:41;;;;;;;10.60;10.30;;;12.40;99.90;;;;;;5112852;27;20232;-84
2022/05/27 03:41:17;;;;;;;10.63;10.33;;;12.40;99.90;;;;;;5106358;28;20221;-84
2022/05/27 03:43:47;;;;;;;10.70;10.40;;;12.40;99.90;;;;;;5104689;28;20289;-84
2022/05/27 03:46:27;;;;;;;10.40;10.10;;;12.40;99.90;;;;;;5104290;28;20279;-83
2022/05/27 03:48:55;;;;;;;10.87;10.57;;;12.40;99.90;;;;;;5103074;28;20225;-84
2022/05/27 03:51:34;;;;;;;10.63;10.33;;;12.40;99.90;;;;;;5103210;28;20218;-84
2022/05/27 03:54:10;;;;;;;10.40;10.10;;;12.40;99.90;;;;;;5103069;28;20223;-82
2022/05/27 03:56:41;;;;;;;10.27;9.97;;;12.50;99.90;;;;;;5102445;28;20232;-84
2022/05/27 03:59:10;;;;;;;10.80;10.50;;;12.50;99.90;;;;;;5102757;28;20213;-83
2022/05/27 04:01:50;;;;;;;10.90;10.60;;;12.50;99.90;;;;;;5103025;28;20225;-83
2022/05/27 04:04:24;;;;;;;10.70;10.40;;;12.50;99.90;;;;;;5103512;28;20256;-84
2022/05/27 04:06:57;;;;;;;10.80;10.50;;;12.50;99.90;;;;;;5102843;28;20225;-83
2022/05/27 04:09:27;;;;;;;10.77;10.47;;;12.50;99.90;;;;;;5132419;22;20289;-84
2022/05/27 04:11:56;;;;;;;10.77;10.47;;;12.50;99.90;;;;;;5129004;28;20217;-85
2022/05/27 04:14:26;;;;;;;10.83;10.53;;;12.50;99.90;;;;;;5128682;28;20221;-86
2022/05/27 04:17:27;;;;;;;10.77;10.47;;;12.60;99.90;;;;;;5128872;28;20236;-85
2022/05/27 04:19:43;;;;;;;10.57;10.27;;;12.60;99.90;;;;;;5128886;27;20316;-85
2022/05/27 04:22:11;;;;;;;10.90;10.60;;;12.60;99.90;;;;;;5128607;28;20263;-86
2022/05/27 04:24:51;;;;;;;10.70;10.40;;;12.70;99.90;;;;;;5128265;27;20242;-86
2022/05/27 04:27:28;;;;;;;10.80;10.50;;;12.70;99.90;;;;;;5128541;28;20232;-85
2022/05/27 04:29:58;;;;;;;10.90;10.60;;;12.80;99.90;;;;;;5127299;27;20316;-88
2022/05/27 04:32:29;;;;;;;10.63;10.33;;;12.80;99.90;;;;;;5128776;27;20231;-86
2022/05/27 04:34:57;;;;;;;10.37;10.07;;;12.90;99.90;;;;;;5127378;28;20239;-87
2022/05/27 04:37:26;;;;;;;10.70;10.40;;;12.90;99.90;;;;;;5128566;27;20229;-85
2022/05/27 04:40:05;;;;;;;10.60;10.30;;;13.00;99.90;;;;;;5128714;27;20232;-85
2022/05/27 04:42:33;;;;;;;10.67;10.37;;;13.00;99.90;;;;;;5127476;27;20293;-86
2022/05/27 04:45:05;;;;;;;10.57;10.27;;;13.10;99.90;;;;;;5140568;27;20288;-85
2022/05/27 04:47:33;;;;;;;10.40;10.10;;;13.20;99.90;;;;;;5136898;27;20229;-85
2022/05/27 04:50:02;;;;;;;10.50;10.20;;;13.30;99.90;;;;;;5124837;27;20225;-86
2022/05/27 04:52:33;;;;;;;10.70;10.40;;;13.30;99.90;;;;;;5125282;27;20216;-86
2022/05/27 04:55:09;;;;;;;10.60;10.30;;;13.40;99.90;;;;;;5125204;27;20237;-85
2022/05/27 04:57:41;;;;;;;10.53;10.23;;;13.50;99.90;;;;;;5125468;28;20232;-86
2022/05/27 05:00:18;;;;;;;10.30;10.00;;;13.60;99.90;;;;;;5125469;27;20290;-86
2022/05/27 05:02:47;;;;;;;10.33;10.03;;;13.60;99.90;;;;;;5125624;28;20281;-86
2022/05/27 05:05:18;;;;;;;10.30;10.00;;;13.70;99.90;;;;;;5124909;28;20251;-86
2022/05/27 05:07:55;;;;;;;10.40;10.10;;;13.80;99.90;;;;;;5125986;28;20290;-86
2022/05/27 05:10:32;;;;;;;10.47;10.17;;;13.90;99.90;;;;;;5125261;27;20224;-86
2022/05/27 05:13:06;;;;;;;10.40;10.10;;;14.00;99.90;;;;;;5126767;28;20237;-86
2022/05/27 05:15:33;;;;;;;10.03;9.73;;;14.10;99.90;;;;;;5126372;28;20235;-86
2022/05/27 05:18:01;;;;;;;10.47;10.17;;;14.20;99.90;;;;;;5127215;28;20229;-86
2022/05/27 05:20:32;;;;;;;10.60;10.30;;;14.30;99.90;;;;;;5126470;27;20243;-86
2022/05/27 05:23:02;;;;;;;10.82;10.52;;;14.50;99.90;;;;;;5126865;27;20221;-86
2022/05/27 05:25:39;;;;;;;10.70;10.40;;;14.50;99.90;;;;;;5126844;28;20232;-86
2022/05/27 05:28:07;;;;;;;10.85;10.55;;;14.60;99.90;;;;;;5126399;28;20351;-86
2022/05/27 05:30:36;;;;;;;10.70;10.40;;;14.60;99.90;;;;;;5125755;27;20698;-86
2022/05/27 05:33:06;;;;;;;10.57;10.27;;;14.60;99.90;;;;;;5126630;28;20243;-85
2022/05/27 05:35:37;;;;;;;10.63;10.33;;;14.60;99.90;;;;;;5125971;28;21038;-86
2022/05/27 05:38:05;;;;;;;10.70;10.40;;;14.60;99.90;;;;;;5125296;28;20229;-85
2022/05/27 05:40:44;;;;;;;10.90;10.60;;;14.70;99.90;;;;;;5124252;27;20229;-86
2022/05/27 05:43:13;;;;;;;10.67;10.37;;;14.70;99.90;;;;;;5124442;28;20247;-86
2022/05/27 05:45:44;;;;;;;10.50;10.20;;;14.70;99.90;;;;;;5124508;28;20233;-86
2022/05/27 05:48:11;;;;;;;10.60;10.30;;;14.70;99.90;;;;;;5126237;28;20225;-86
2022/05/27 05:50:41;;;;;;;10.65;10.35;;;14.80;99.90;;;;;;5125913;27;20228;-86
2022/05/27 05:53:10;;;;;;;10.20;9.90;;;14.80;99.90;;;;;;5126221;27;20240;-85
2022/05/27 05:55:50;;;;;;;10.30;10.00;;;14.80;99.90;;;;;;5126365;28;20259;-86
2022/05/27 05:58:18;;;;;;;10.10;9.80;;;14.70;99.90;;;;;;5126149;28;20247;-85
2022/05/27 06:00:48;;;;;;;10.50;10.20;;;14.80;99.90;;;;;;5125643;27;20294;-86
2022/05/27 06:03:17;;;;;;;10.50;10.20;;;14.80;99.90;;;;;;5126452;28;20224;-86
2022/05/27 06:05:47;;;;;;;10.45;10.15;;;14.80;99.90;;;;;;5125750;28;20263;-86
2022/05/27 06:08:17;;;;;;;10.50;10.20;;;14.90;99.90;;;;;;5125095;28;20308;-86
2022/05/27 06:10:54;;;;;;;10.55;10.25;;;14.90;99.90;;;;;;5125320;27;20247;-85
2022/05/27 06:13:28;;;;;;;10.27;9.97;;;14.90;99.90;;;;;;5126007;28;20213;-85
2022/05/27 06:16:06;;;;;;;10.48;10.18;;;15.00;99.90;;;;;;5139557;28;20271;-86
2022/05/27 06:18:33;;;;;;;10.30;10.00;;;15.00;99.90;;;;;;5134968;27;20225;-86
2022/05/27 06:21:03;;;;;;;10.63;10.32;;;15.10;99.90;;;;;;5128277;28;20229;-86
2022/05/27 06:23:32;;;;;;;10.55;10.25;;;15.20;99.90;;;;;;5126701;28;20221;-86
2022/05/27 06:26:11;;;;;;;10.07;9.77;;;15.20;99.90;;;;;;5126201;28;20255;-86
2022/05/27 06:34:33;;;;;;;10.40;10.10;;;15.30;99.90;;;;;;5127150;28;20221;-86
2022/05/27 06:37:11;;;;;;;10.32;10.02;;;15.30;99.90;;;;;;5129180;27;20237;-85
2022/05/27 06:39:40;;;;;;;10.48;10.18;;;15.30;99.90;;;;;;5124153;28;20232;-86
2022/05/27 06:42:17;;;;;;;10.40;10.10;;;15.30;99.90;;;;;;5124489;28;20242;-86
2022/05/27 06:44:48;;;;;;;10.27;9.98;;;15.30;99.90;;;;;;5124401;28;20221;-86
2022/05/27 06:47:18;;;;;;;10.32;10.02;;;15.40;99.90;;;;;;5124396;28;20228;-86
2022/05/27 06:49:46;;;;;;;10.15;9.85;;;15.40;99.90;;;;;;5123834;27;20309;-86
2022/05/27 06:52:15;;;;;;;10.10;9.80;;;15.40;99.90;;;;;;5125604;28;20704;-85
2022/05/27 06:54:44;;;;;;;9.93;9.63;;;15.40;99.90;;;;;;5125088;28;20239;-85
2022/05/27 06:57:24;;;;;;;10.15;9.85;;;15.50;99.90;;;;;;5124708;27;20233;-86
2022/05/27 06:59:54;;;;;;;9.90;9.60;;;15.60;99.90;;;;;;5125137;27;20262;-86
2022/05/27 07:02:22;;;;;;;10.18;9.88;;;15.60;99.90;;;;;;5124676;28;20279;-86
2022/05/27 07:04:51;;;;;;;10.18;9.88;;;15.60;99.90;;;;;;5124884;28;20256;-85
2022/05/27 07:07:21;;;;;;;9.95;9.65;;;15.70;99.90;;;;;;5125445;28;20221;-86
2022/05/27 07:09:50;;;;;;;10.20;9.90;;;15.80;99.90;;;;;;5125316;27;20236;-86
2022/05/27 07:15:06;;;;;;;9.90;9.60;;;15.90;99.90;;;;;;5124573;28;20312;-86
2022/05/27 07:17:35;;;;;;;9.85;9.55;;;15.90;99.90;;;;;;5124804;27;20239;-87
2022/05/27 07:20:05;;;;;;;9.95;9.65;;;15.90;99.90;;;;;;5123185;28;20240;-87
2022/05/27 07:22:35;;;;;;;9.90;9.60;;;15.90;99.90;;;;;;5123308;28;20225;-87
2022/05/27 07:25:04;;;;;;;10.20;9.90;;;15.90;99.90;;;;;;5123022;28;20224;-86
2022/05/27 07:27:36;;;;;;;10.18;9.88;;;15.90;99.90;;;;;;5126297;28;20239;-85
2022/05/27 07:30:21;;;;;;;10.00;9.70;;;15.80;99.90;;;;;;5128529;27;20228;-86
2022/05/27 07:32:50;;;;;;;10.15;9.85;;;15.80;99.90;;;;;;5126614;28;20228;-87
2022/05/27 07:35:19;;;;;;;9.70;9.40;;;15.90;99.90;;;;;;5126244;27;20217;-86
2022/05/27 07:37:48;;;;;;;9.70;9.40;;;16.00;99.90;;;;;;5125333;28;20240;-87
2022/05/27 07:40:21;;;;;;;9.60;9.30;;;15.90;99.90;;;;;;5125415;27;20236;-87
2022/05/27 07:42:50;;;;;;;9.63;9.32;;;15.80;99.90;;;;;;5126427;28;20212;-86
2022/05/27 07:45:26;;;;;;;10.23;9.93;;;15.80;99.90;;;;;;5125531;28;20224;-86
2022/05/27 07:47:55;;;;;;;9.90;9.60;;;15.80;99.90;;;;;;5125691;28;20229;-86
2022/05/27 07:50:24;;;;;;;10.00;9.70;;;15.90;99.90;;;;;;5124381;27;20318;-87
2022/05/27 07:52:54;;;;;;;9.70;9.40;;;15.90;99.90;;;;;;5124960;28;20280;-87
2022/05/27 07:55:23;;;;;;;10.27;9.98;;;16.10;99.90;;;;;;5124309;28;20240;-86
2022/05/27 07:58:02;;;;;;;9.65;9.35;;;16.20;99.90;;;;;;5126116;28;20255;-87
2022/05/27 08:00:32;;;;;;;10.25;9.95;;;16.20;99.90;;;;;;5128671;27;20228;-87
2022/05/27 08:03:00;;;;;;;10.10;9.80;;;16.20;99.90;;;;;;5124611;27;20221;-87
2022/05/27 08:05:32;;;;;;;10.40;10.10;;;16.30;99.90;;;;;;5123056;27;20221;-87
2022/05/27 08:08:01;;;;;;;10.05;9.75;;;16.30;99.90;;;;;;5123090;27;20232;-87
2022/05/27 08:10:32;;;;;;;9.82;9.52;;;16.40;99.90;;;;;;5124840;27;20332;-87
2022/05/27 08:13:12;;;;;;;9.90;9.60;;;16.40;99.90;;;;;;5125261;28;20224;-87
2022/05/27 08:15:40;;;;;;;9.95;9.65;;;16.40;99.90;;;;;;5126916;27;20223;-87
2022/05/27 08:18:08;;;;;;;9.70;9.40;;;16.40;99.90;;;;;;5128894;28;20225;-86
2022/05/27 08:20:38;;;;;;;9.82;9.52;;;16.50;99.90;;;;;;5125996;27;20225;-87
2022/05/27 08:23:07;;;;;;;10.07;9.77;;;16.50;99.90;;;;;;5125929;28;20231;-87
2022/05/27 08:25:37;;;;;;;9.82;9.52;;;16.40;99.90;;;;;;5124699;27;20236;-87
2022/05/27 08:28:14;;;;;;;9.57;9.27;;;16.40;99.90;;;;;;5126169;28;20229;-87
2022/05/27 08:30:44;;;;;;;9.10;8.80;;;16.40;99.90;;;;;;5127978;27;20263;-86
2022/05/27 08:33:13;;;;;;;9.13;8.82;;;16.50;99.90;;;;;;5140855;27;20225;-87
2022/05/27 08:38:31;;;;;;;9.50;9.20;;;16.60;99.90;;;;;;5129536;28;20236;-87
2022/05/27 08:41:29;;;;;;;9.80;9.50;;;16.60;99.90;;;;;;5127503;27;20240;-87
2022/05/27 08:44:22;;;;;;;9.82;9.52;;;16.80;99.90;;;;;;5126556;28;20237;-87
2022/05/27 08:47:01;;;;;;;10.20;9.90;;;16.90;99.90;;;;;;5126196;28;20232;-86
2022/05/27 08:49:39;;;;;;;10.50;10.20;;;17.00;99.90;;;;;;5126178;27;20239;-87
2022/05/27 08:52:17;;;;;;;10.70;10.40;;;17.00;99.90;;;;;;5126054;27;20228;-87
2022/05/27 08:54:56;;;;;;;10.00;9.70;;;17.10;99.90;;;;;;5126351;28;20290;-86
2022/05/27 09:00:22;;;;;;;10.50;10.20;;;17.00;99.90;;;;;;5124851;27;20255;-87
2022/05/27 09:03:09;;;;;;;10.57;10.27;;;16.90;99.90;;;;;;5123968;28;20239;-87
2022/05/27 09:05:45;;;;;;;10.70;10.40;;;16.90;99.90;;;;;;5124093;28;20247;-87
2022/05/27 09:08:24;;;;;;;10.80;10.50;;;17.00;99.90;;;;;;5125348;28;20225;-86
2022/05/27 09:11:01;;;;;;;10.73;10.43;;;17.00;99.90;;;;;;5125227;27;20244;-86
2022/05/27 09:13:39;;;;;;;10.32;10.02;;;16.90;99.90;;;;;;5125564;28;20233;-87
2022/05/27 09:16:18;;;;;;;10.73;10.43;;;16.80;99.90;;;;;;5125363;28;20300;-87
2022/05/27 09:18:58;;;;;;;10.50;10.20;;;16.90;99.90;;;;;;5125542;28;20232;-86
2022/05/27 09:21:44;;;;;;;10.68;10.38;;;16.90;99.90;;;;;;5126124;28;20232;-86
2022/05/27 09:24:39;;;;;;;10.27;9.98;;;17.00;99.90;;;;;;5125925;27;20225;-87
2022/05/27 09:27:10;;;;;;;10.55;10.25;;;17.10;99.90;;;;;;5125467;28;20696;-86
2022/05/27 09:29:55;;;;;;;10.55;10.25;;;17.20;99.90;;;;;;5125873;28;20232;-85
2022/05/27 09:32:34;;;;;;;10.45;10.15;;;17.20;99.90;;;;;;5126341;28;20224;-87
2022/05/27 09:35:11;;;;;;;10.23;9.93;;;17.10;99.90;;;;;;5125741;28;20224;-86
2022/05/27 09:37:44;;;;;;;10.20;9.90;;;17.20;99.90;;;;;;5125689;28;20232;-86
2022/05/27 09:40:19;;;;;;;10.18;9.88;;;17.30;99.90;;;;;;5124662;28;20228;-87
2022/05/27 09:42:58;;;;;;;10.20;9.90;;;17.20;99.90;;;;;;5124524;28;20252;-87
2022/05/27 09:45:29;;;;;;;10.50;10.20;;;17.30;99.90;;;;;;5124079;28;20224;-86
2022/05/27 09:48:06;;;;;;;10.45;10.15;;;17.50;99.90;;;;;;5125069;27;20240;-87
2022/05/27 09:50:44;;;;;;;10.70;10.40;;;17.50;99.90;;;;;;5123830;27;20235;-87
2022/05/27 09:53:21;;;;;;;10.38;10.07;;;17.60;99.90;;;;;;5123545;28;20287;-87
2022/05/27 09:56:02;;;;;;;10.40;10.10;;;17.60;99.90;;;;;;5123874;28;20228;-87
2022/05/27 09:58:40;;;;;;;10.02;9.73;;;17.50;99.90;;;;;;5122501;28;20232;-87
2022/05/27 10:01:26;;;;;;;10.10;9.80;;;17.50;99.90;;;;;;5122799;28;20247;-88
2022/05/27 10:04:21;;;;;;;10.20;9.90;;;17.50;99.90;;;;;;5122907;28;20280;-87
2022/05/27 10:06:54;;;;;;;10.27;9.98;;;17.50;99.90;;;;;;5123676;27;20284;-87
2022/05/27 10:09:33;;;;;;;10.35;10.05;;;17.50;99.90;;;;;;5143636;22;20248;-83
2022/05/27 10:12:02;;;;;;;10.00;9.70;;;17.50;99.90;;;;;;5102449;28;20225;-82
2022/05/27 10:14:37;;;;;;;10.30;10.00;;;17.50;99.90;;;;;;5102817;28;20238;-81
2022/05/27 10:17:10;;;;;;;10.48;10.18;;;17.40;99.90;;;;;;5105143;28;20236;-83
2022/05/27 10:19:42;;;;;;;10.27;9.98;;;17.30;99.90;;;;;;5105570;28;20233;-81
2022/05/27 10:22:25;;;;;;;10.13;9.82;;;17.20;99.90;;;;;;5105117;28;20244;-83
2022/05/27 10:25:01;;;;;;;9.90;9.60;;;17.10;99.90;;;;;;5104734;28;20214;-83
2022/05/27 10:27:36;;;;;;;10.00;9.70;;;17.10;99.90;;;;;;5103672;28;20324;-83
2022/05/27 10:30:11;;;;;;;9.93;9.63;;;17.10;99.90;;;;;;5103138;28;20232;-83
2022/05/27 10:32:46;;;;;;;9.82;9.52;;;17.10;99.90;;;;;;5101143;28;20224;-84
2022/05/27 10:35:35;;;;;;;10.30;10.00;;;17.10;99.90;;;;;;5102488;28;20241;-83
2022/05/27 10:38:29;;;;;;;10.20;9.90;;;17.20;99.90;;;;;;5103029;28;20233;-84
2022/05/27 10:41:06;;;;;;;10.10;9.80;;;17.30;99.90;;;;;;5102218;28;20240;-82
2022/05/27 10:44:03;;;;;;;9.77;9.48;;;17.30;99.90;;;;;;5102543;28;20229;-83
2022/05/27 10:46:35;;;;;;;9.90;9.60;;;17.30;99.90;;;;;;5101704;28;20316;-83
2022/05/27 10:49:55;;;;;;;10.40;10.10;;;17.30;99.90;;;;;;5101491;28;20261;-83
2022/05/27 10:52:54;;;;;;;10.60;10.30;;;17.20;99.90;;;;;;5038333;28;20224;-83
2022/05/27 10:55:43;;;;;;;10.15;9.85;;;17.20;99.90;;;;;;5101865;28;20225;-83
2022/05/27 11:04:54;;;;;;;10.32;10.02;;;17.00;99.90;;;;;;5102431;28;20217;-83
2022/05/27 11:07:36;;;;;;;10.52;10.23;;;17.10;99.90;;;;;;5090737;28;20217;-82
2022/05/27 11:10:24;;;;;;;10.27;9.98;;;17.20;99.90;;;;;;5099594;28;20245;-82
2022/05/27 11:16:11;;;;;;;10.10;9.80;;;17.10;99.90;;;;;;5099752;28;20255;-82
2022/05/27 11:19:03;;;;;;;10.30;10.00;;;17.10;99.90;;;;;;5100418;28;20233;-83
2022/05/27 11:21:54;;;;;;;10.40;10.10;;;17.10;99.90;;;;;;5100791;28;20229;-81
2022/05/27 11:25:09;;;;;;;10.32;10.02;;;16.90;99.90;;;;;;5101266;28;20236;-84
2022/05/27 11:28:30;;;;;;;10.18;9.88;;;17.00;99.90;;;;;;5086704;28;20233;-83
2022/05/27 11:31:14;;;;;;;10.48;10.18;;;17.00;99.90;;;;;;5100766;28;20244;-82
2022/05/27 11:33:53;;;;;;;10.40;10.10;;;17.00;99.90;;;;;;5113561;28;20223;-84
2022/05/27 11:36:58;;;;;;;10.30;10.00;;;17.10;99.90;;;;;;5102115;28;20229;-83
2022/05/27 11:40:14;;;;;;;10.48;10.18;;;17.10;99.90;;;;;;5068323;28;20237;-83
2022/05/27 11:43:17;;;;;;;10.40;10.10;;;17.20;99.90;;;;;;5070341;28;20249;-83
2022/05/27 11:45:58;;;;;;;10.32;10.02;;;17.20;99.90;;;;;;5103107;28;20229;-83
2022/05/27 11:48:41;;;;;;;10.20;9.90;;;17.10;99.90;;;;;;5104150;28;20235;-83
2022/05/27 11:51:32;;;;;;;10.43;10.13;;;17.00;99.90;;;;;;5103958;28;20233;-82
2022/05/27 11:54:51;;;;;;;10.50;10.20;;;17.00;99.90;;;;;;5104374;28;21043;-83
2022/05/27 11:57:39;;;;;;;10.52;10.23;;;17.00;99.90;;;;;;5103706;28;20264;-83
2022/05/27 12:00:16;;;;;;;9.90;9.60;;;16.90;99.90;;;;;;5103739;28;20279;-83
2022/05/27 12:02:55;;;;;;;10.40;10.10;;;16.90;99.90;;;;;;5105333;28;20217;-84
2022/05/27 12:05:27;;;;;;;10.02;9.73;;;17.00;99.90;;;;;;5117052;28;20225;-84
2022/05/27 12:08:02;;;;;;;10.27;9.98;;;17.00;99.90;;;;;;5117626;28;20229;-84
2022/05/27 12:10:40;;;;;;;10.25;9.95;;;17.00;99.90;;;;;;5106656;28;20243;-83
2022/05/27 12:13:23;;;;;;;10.00;9.70;;;17.10;99.90;;;;;;5107339;28;20221;-84
2022/05/27 12:15:59;;;;;;;10.02;9.73;;;17.10;99.90;;;;;;5105654;28;20230;-83
2022/05/27 12:18:39;;;;;;;10.07;9.77;;;17.00;99.90;;;;;;5109038;28;20290;-82
2022/05/27 12:21:14;;;;;;;10.13;9.82;;;16.90;99.90;;;;;;5105577;28;20233;-83
2022/05/27 12:23:53;;;;;;;10.15;9.85;;;16.90;99.90;;;;;;5105800;28;20257;-83
2022/05/27 12:26:30;;;;;;;10.30;10.00;;;17.00;99.90;;;;;;5104104;28;20229;-83
2022/05/27 12:29:00;;;;;;;10.23;9.93;;;17.00;99.90;;;;;;5103997;28;20233;-83
2022/05/27 12:31:34;;;;;;;10.50;10.20;;;16.90;99.90;;;;;;5105284;28;20233;-84
2022/05/27 12:34:39;;;;;;;10.30;10.00;;;16.90;99.90;;;;;;5105344;28;20295;-84
2022/05/27 12:37:26;;;;;;;9.77;9.48;;;17.10;99.90;;;;;;5103848;28;20221;-83
2022/05/27 12:40:27;;;;;;;10.30;10.00;;;17.60;99.90;;;;;;5104056;28;20290;-83
2022/05/27 12:43:02;;;;;;;9.93;9.63;;;17.80;99.90;;;;;;5103771;28;20249;-83
2022/05/27 12:45:46;;;;;;;10.15;9.85;;;17.90;99.90;;;;;;5104072;28;20233;-84
2022/05/27 12:48:33;;;;;;;10.45;10.15;;;18.20;99.90;;;;;;5103872;28;20239;-84
2022/05/27 12:51:06;;;;;;;10.48;10.18;;;18.60;99.90;;;;;;5103860;28;20233;-84
2022/05/27 12:53:55;;;;;;;10.60;10.30;;;18.90;99.90;;;;;;5104926;28;20321;-84
2022/05/27 13:02:50;;;;;;;10.50;10.20;;;18.60;99.90;;;;;;5105116;28;20264;-84
2022/05/27 13:06:07;;;;;;;10.40;10.10;;;18.40;99.90;;;;;;5103402;28;20720;-83
2022/05/27 13:08:46;;;;;;;10.20;9.90;;;18.30;99.90;;;;;;5102561;28;20226;-83
2022/05/27 13:11:23;;;;;;;10.50;10.20;;;18.00;99.90;;;;;;5102522;28;20276;-84
2022/05/27 13:13:52;;;;;;;10.50;10.20;;;18.00;99.90;;;;;;5107001;28;20233;-83
2022/05/27 13:16:31;;;;;;;10.35;10.05;;;18.00;99.90;;;;;;5104453;28;20229;-84
2022/05/27 13:19:05;;;;;;;10.93;10.63;;;17.90;99.90;;;;;;5103122;28;20213;-84
2022/05/27 13:21:47;;;;;;;10.30;10.00;;;17.90;99.90;;;;;;5102840;28;20232;-84
2022/05/27 13:24:35;;;;;;;9.90;9.60;;;17.90;99.90;;;;;;5101886;28;20311;-84
2022/05/27 13:27:20;;;;;;;9.90;9.60;;;17.80;99.90;;;;;;5102819;28;20276;-84
2022/05/27 13:30:07;;;;;;;10.07;9.77;;;17.70;99.90;;;;;;5102136;28;20237;-83
2022/05/27 13:32:54;;;;;;;10.25;9.95;;;17.70;99.90;;;;;;5102824;28;20230;-84
2022/05/27 13:35:23;;;;;;;9.88;9.57;;;17.80;99.90;;;;;;5102525;28;20225;-83
2022/05/27 13:38:00;;;;;;;10.27;9.98;;;17.90;99.90;;;;;;5102601;28;20264;-83
2022/05/27 13:40:32;;;;;;;10.27;9.98;;;18.10;99.90;;;;;;5102357;28;20240;-84
2022/05/27 13:43:10;;;;;;;10.60;10.30;;;18.50;99.90;;;;;;5102324;28;20222;-84
2022/05/27 13:45:56;;;;;;;10.00;9.70;;;19.00;99.90;;;;;;5102408;28;20217;-84
2022/05/27 13:48:32;;;;;;;10.00;9.70;;;19.50;99.90;;;;;;5103360;28;20234;-84
2022/05/27 13:51:10;;;;;;;9.90;9.60;;;19.50;99.90;;;;;;5104735;28;20259;-83
2022/05/27 13:53:40;;;;;;;10.32;10.02;;;19.50;99.90;;;;;;5103903;28;20235;-83
2022/05/27 13:56:14;;;;;;;10.50;10.20;;;19.40;99.90;;;;;;5101755;28;20225;-82
2022/05/27 13:58:56;;;;;;;10.27;9.98;;;19.80;99.90;;;;;;5100665;28;20247;-82